Weather at Rancho Laos Airstrip [CLOSED]

Public forecast

Using degrees Fahrenheit for public forecast. Weather courtesy of forecast.io.

Closest aviation weather report (METAR) to Rancho Laos Airstrip

Closest report is Ryan Field, 21.6 nm (39.9 km) NNE. Retrieved 2021/06/25 02:45 UTC (1 hour ago):

KRYN 250245Z 31008KT 10SM CLR 34/13 A2989 RMK LAST

Closest aviation forecast (TAF) to Rancho Laos Airstrip

Closest forecast is Tucson International Airport / Morris Air National Guard Base, 28.8 nm (53.4 km) NE. Retrieved 2021-06-25 00:22 UTC (3 hours ago):

TAF KTUS 242320Z 2500/2524 27010G18KT P6SM SCT090 BKN220 FM250300 30008KT P6SM SCT220 FM250600 16005KT P6SM SKC FM252100 29010G16KT P6SM FEW100